Time;durP1;ratioP1;P1;durP2;ratioP2;P2;SDS_P1;SDS_P2;PMS_P1;PMS_P2;Temp;Humidity;BMP_temperature;BMP_pressure;BME280_temperature;BME280_humidity;BME280_pressure;Samples;Min_cycle;Max_cycle;Signal;HPM_P1;HPM_P2
2021/09/10 00:01:07;;;;;;;7.68;6.97;;;20.20;98.20;;;;;;5032593;28;20733;-52
2021/09/10 00:03:33;;;;;;;8.33;7.67;;;20.20;98.40;;;;;;5035707;28;20191;-51
2021/09/10 00:05:58;;;;;;;8.00;7.40;;;20.20;98.40;;;;;;5031680;28;20203;-52
2021/09/10 00:08:24;;;;;;;6.90;6.30;;;20.10;98.70;;;;;;5028275;28;20213;-52
2021/09/10 00:10:49;;;;;;;8.50;7.67;;;20.00;98.90;;;;;;5035782;28;20197;-52
2021/09/10 00:13:15;;;;;;;7.43;6.83;;;20.00;99.20;;;;;;5029536;28;20190;-52
2021/09/10 00:15:41;;;;;;;7.70;6.93;;;20.00;98.80;;;;;;5037337;28;20225;-51
2021/09/10 00:18:06;;;;;;;7.90;7.30;;;19.90;99.00;;;;;;5032149;28;20206;-52
2021/09/10 00:20:32;;;;;;;8.60;7.80;;;19.80;99.10;;;;;;5029208;28;20643;-52
2021/09/10 00:22:57;;;;;;;8.33;7.60;;;19.90;99.20;;;;;;5030466;28;20237;-52
2021/09/10 00:25:23;;;;;;;8.10;7.40;;;19.60;99.10;;;;;;5030361;28;20221;-52
2021/09/10 00:27:48;;;;;;;7.97;7.27;;;19.90;99.30;;;;;;5035858;28;20210;-52
2021/09/10 00:30:14;;;;;;;10.37;7.50;;;19.90;99.30;;;;;;5030765;28;20182;-52
2021/09/10 00:32:39;;;;;;;8.97;8.20;;;19.90;99.30;;;;;;5031242;28;20183;-52
2021/09/10 00:35:06;;;;;;;7.87;7.27;;;19.90;99.50;;;;;;5029029;28;20190;-52
2021/09/10 00:37:31;;;;;;;8.30;7.60;;;19.90;99.60;;;;;;5025888;28;20589;-52
2021/09/10 00:39:57;;;;;;;8.03;7.33;;;19.90;99.90;;;;;;5038533;28;20264;-51
2021/09/10 00:42:23;;;;;;;8.40;7.67;;;19.90;99.50;;;;;;5028941;28;20543;-51
2021/09/10 00:44:49;;;;;;;8.33;7.60;;;19.90;99.70;;;;;;5029908;28;20269;-51
2021/09/10 00:47:14;;;;;;;9.73;8.93;;;19.90;99.90;;;;;;5026839;28;20461;-52
2021/09/10 00:49:41;;;;;;;7.97;7.37;;;19.80;99.90;;;;;;5025549;28;20281;-52
2021/09/10 00:52:07;;;;;;;8.50;7.80;;;19.90;99.90;;;;;;5036870;28;20182;-52
2021/09/10 00:54:33;;;;;;;8.80;7.90;;;19.90;99.90;;;;;;5035207;28;20210;-52
2021/09/10 00:56:59;;;;;;;8.83;8.13;;;19.90;99.90;;;;;;5036873;28;20249;-52
2021/09/10 00:59:25;;;;;;;8.10;7.40;;;20.00;99.90;;;;;;5029875;28;20194;-52
2021/09/10 01:01:51;;;;;;;8.53;7.63;;;19.90;99.90;;;;;;5031287;28;20182;-51
2021/09/10 01:04:19;;;;;;;8.32;7.32;;;20.00;99.90;;;;;;5021856;28;20218;-52
2021/09/10 01:06:46;;;;;;;8.38;7.57;;;19.80;99.90;;;;;;5031429;28;20214;-51
2021/09/10 01:09:12;;;;;;;9.00;8.13;;;19.80;99.90;;;;;;5034586;28;20220;-51
2021/09/10 01:11:38;;;;;;;8.57;7.78;;;19.80;99.90;;;;;;5032672;28;20268;-51
2021/09/10 01:14:05;;;;;;;7.78;7.10;;;19.90;99.90;;;;;;5021203;28;20190;-51
2021/09/10 01:16:30;;;;;;;8.68;7.88;;;19.90;99.90;;;;;;5031584;28;20225;-51
2021/09/10 01:18:56;;;;;;;8.60;7.90;;;20.10;99.90;;;;;;5037682;28;20190;-52
2021/09/10 01:21:22;;;;;;;8.77;8.07;;;19.70;99.90;;;;;;5034894;28;20639;-51
2021/09/10 01:23:48;;;;;;;8.88;7.97;;;19.70;99.90;;;;;;5023608;28;20700;-51
2021/09/10 01:26:14;;;;;;;9.90;8.40;;;19.60;99.90;;;;;;5029838;28;20218;-52
2021/09/10 01:28:39;;;;;;;9.30;8.40;;;19.60;99.90;;;;;;5025086;28;20214;-51
2021/09/10 01:31:05;;;;;;;10.87;9.07;;;19.70;99.90;;;;;;5032495;28;20563;-52
2021/09/10 01:33:31;;;;;;;8.50;7.77;;;19.70;99.90;;;;;;5039563;28;20563;-52
2021/09/10 01:35:56;;;;;;;8.33;7.73;;;19.60;99.90;;;;;;5032782;28;20217;-52
2021/09/10 01:38:23;;;;;;;8.50;7.80;;;19.60;99.90;;;;;;5022558;28;20280;-52
2021/09/10 01:40:48;;;;;;;8.95;8.15;;;19.70;99.90;;;;;;5030307;28;20647;-52
2021/09/10 01:43:15;;;;;;;9.00;8.20;;;19.70;99.90;;;;;;5025689;28;20185;-51
2021/09/10 01:45:41;;;;;;;8.70;7.90;;;19.70;99.90;;;;;;5030163;28;20222;-51
2021/09/10 01:48:06;;;;;;;8.97;8.07;;;19.70;99.90;;;;;;5033812;28;20695;-51
2021/09/10 01:50:32;;;;;;;8.83;8.03;;;19.70;99.90;;;;;;5037809;28;20857;-51
2021/09/10 01:52:57;;;;;;;8.97;8.23;;;19.60;99.90;;;;;;5031005;28;20612;-51
2021/09/10 01:55:23;;;;;;;8.60;7.90;;;19.60;99.90;;;;;;5032253;28;20236;-52
2021/09/10 01:57:50;;;;;;;9.07;8.20;;;19.60;99.90;;;;;;5032786;28;20210;-51
2021/09/10 02:00:17;;;;;;;8.88;8.05;;;19.60;99.90;;;;;;5029564;28;20212;-52
2021/09/10 02:02:43;;;;;;;8.25;7.55;;;19.60;99.90;;;;;;5035867;28;20173;-52
2021/09/10 02:05:09;;;;;;;8.37;7.77;;;19.50;99.90;;;;;;5028935;28;20194;-51
2021/09/10 02:07:36;;;;;;;9.63;8.73;;;19.60;99.90;;;;;;5026880;28;20241;-51
2021/09/10 02:10:04;;;;;;;9.05;8.27;;;19.60;99.90;;;;;;5029536;28;20199;-51
2021/09/10 02:12:30;;;;;;;9.23;8.43;;;19.60;99.90;;;;;;5024856;28;20203;-51
2021/09/10 02:14:55;;;;;;;8.73;7.97;;;19.60;99.90;;;;;;5030329;28;20186;-52
2021/09/10 02:17:21;;;;;;;8.53;7.83;;;19.50;99.90;;;;;;5029969;28;20222;-52
2021/09/10 02:19:46;;;;;;;8.80;8.10;;;19.50;99.90;;;;;;5032613;28;20174;-51
2021/09/10 02:22:12;;;;;;;9.63;8.77;;;19.50;99.90;;;;;;5027683;28;20199;-51
2021/09/10 02:24:37;;;;;;;7.80;7.20;;;19.50;99.90;;;;;;5019753;28;20194;-52
2021/09/10 02:27:03;;;;;;;8.93;7.93;;;19.30;99.90;;;;;;5026734;28;20282;-51
2021/09/10 02:29:29;;;;;;;8.97;8.27;;;19.30;99.90;;;;;;5026111;28;20190;-51
2021/09/10 02:31:55;;;;;;;9.00;8.30;;;19.30;99.90;;;;;;5029652;28;20500;-51
2021/09/10 02:34:20;;;;;;;9.63;8.80;;;19.20;99.90;;;;;;5036518;28;20194;-51
2021/09/10 02:36:46;;;;;;;9.50;8.67;;;19.30;99.90;;;;;;5028948;28;20250;-51
2021/09/10 02:39:12;;;;;;;8.53;7.80;;;19.20;99.90;;;;;;5028897;28;20671;-51
2021/09/10 02:41:39;;;;;;;9.03;8.27;;;19.20;99.90;;;;;;5028711;28;20182;-51
2021/09/10 02:44:06;;;;;;;10.23;9.10;;;19.20;99.90;;;;;;5024318;28;20190;-52
2021/09/10 02:46:33;;;;;;;9.05;8.32;;;19.30;99.90;;;;;;5031155;28;20678;-52
2021/09/10 02:48:59;;;;;;;10.02;9.02;;;19.10;99.90;;;;;;5029447;28;20643;-51
2021/09/10 02:51:24;;;;;;;11.13;9.93;;;19.20;99.90;;;;;;5024525;28;20191;-51
2021/09/10 02:53:50;;;;;;;12.53;8.60;;;19.20;99.90;;;;;;5029150;28;20447;-51
2021/09/10 02:56:16;;;;;;;9.17;8.30;;;19.20;99.90;;;;;;5031117;28;20638;-52
2021/09/10 02:58:41;;;;;;;9.87;8.97;;;19.30;99.90;;;;;;5030817;28;20206;-52
2021/09/10 03:01:07;;;;;;;9.33;8.43;;;19.30;99.90;;;;;;5033588;28;20186;-52
2021/09/10 03:03:33;;;;;;;9.10;8.27;;;19.40;99.90;;;;;;5032469;28;20221;-51
2021/09/10 03:05:58;;;;;;;9.47;8.67;;;19.30;99.90;;;;;;5026531;28;20182;-54
2021/09/10 03:08:24;;;;;;;9.63;8.77;;;19.30;99.90;;;;;;5028830;28;20202;-52
2021/09/10 03:10:50;;;;;;;9.47;8.63;;;19.30;99.90;;;;;;5038515;28;20217;-52
2021/09/10 03:13:16;;;;;;;10.00;8.45;;;19.30;99.90;;;;;;5026253;28;20193;-52
2021/09/10 03:15:42;;;;;;;9.02;8.32;;;19.30;99.90;;;;;;5039380;28;20236;-51
2021/09/10 03:18:08;;;;;;;9.10;7.97;;;19.30;99.90;;;;;;5032351;28;20233;-51
2021/09/10 03:20:33;;;;;;;9.13;8.40;;;19.40;99.90;;;;;;5026221;28;20684;-51
2021/09/10 03:22:59;;;;;;;9.47;8.63;;;19.40;99.90;;;;;;5031579;28;20487;-51
2021/09/10 03:25:24;;;;;;;10.67;9.67;;;19.40;99.90;;;;;;5033815;28;20549;-51
2021/09/10 03:27:50;;;;;;;9.83;9.03;;;19.50;99.90;;;;;;5027360;28;20218;-51
2021/09/10 03:30:16;;;;;;;9.63;8.73;;;19.50;99.90;;;;;;5032409;28;20193;-51
2021/09/10 03:32:42;;;;;;;10.77;9.68;;;19.50;99.90;;;;;;5035470;28;20550;-52
2021/09/10 03:35:08;;;;;;;11.23;8.70;;;19.50;99.90;;;;;;5038720;28;20745;-51
2021/09/10 03:37:34;;;;;;;9.43;8.52;;;19.40;99.90;;;;;;5030647;28;20586;-51
2021/09/10 03:40:00;;;;;;;10.10;9.30;;;19.30;99.90;;;;;;5031795;28;20201;-52
2021/09/10 03:42:26;;;;;;;9.50;8.70;;;19.30;99.90;;;;;;5029323;28;20452;-52
2021/09/10 03:44:52;;;;;;;9.73;8.83;;;19.30;99.90;;;;;;5031219;28;20191;-51
2021/09/10 03:47:17;;;;;;;9.20;8.47;;;19.20;99.90;;;;;;5028128;28;20213;-51
2021/09/10 03:49:43;;;;;;;10.43;9.43;;;19.30;99.90;;;;;;5030825;28;20206;-52
2021/09/10 03:52:08;;;;;;;10.07;9.07;;;19.30;99.90;;;;;;5029690;28;20938;-52
2021/09/10 03:54:34;;;;;;;11.30;10.40;;;19.40;99.90;;;;;;5034946;28;20187;-52
2021/09/10 03:56:59;;;;;;;9.87;9.07;;;19.30;99.90;;;;;;5029710;28;20226;-52
2021/09/10 03:59:25;;;;;;;10.33;9.43;;;19.30;99.90;;;;;;5024872;28;20185;-52
2021/09/10 04:01:51;;;;;;;9.40;8.60;;;19.40;99.90;;;;;;5040758;28;20182;-52
2021/09/10 04:04:16;;;;;;;9.90;8.90;;;19.40;99.90;;;;;;5030882;28;20196;-52
2021/09/10 04:06:42;;;;;;;10.20;9.10;;;19.40;99.90;;;;;;5026476;28;20289;-51
2021/09/10 04:09:08;;;;;;;12.37;10.23;;;19.40;99.90;;;;;;5032149;28;20197;-51
2021/09/10 04:11:35;;;;;;;9.90;9.00;;;19.30;99.90;;;;;;5032323;28;20667;-52
2021/09/10 04:14:01;;;;;;;9.88;9.02;;;19.30;99.90;;;;;;5021984;28;20194;-51
2021/09/10 04:16:27;;;;;;;10.13;9.23;;;19.30;99.90;;;;;;5023595;28;20211;-51
2021/09/10 04:18:53;;;;;;;11.57;10.37;;;19.30;99.90;;;;;;5028726;28;20440;-51
2021/09/10 04:21:18;;;;;;;11.17;10.17;;;19.40;99.90;;;;;;5031791;28;20437;-51
2021/09/10 04:23:44;;;;;;;9.67;8.87;;;19.40;99.90;;;;;;5029111;28;20689;-51
2021/09/10 04:26:09;;;;;;;10.27;9.27;;;19.50;99.90;;;;;;5030882;28;20198;-51
2021/09/10 04:28:35;;;;;;;10.27;9.47;;;19.30;99.90;;;;;;5027177;28;20642;-52
2021/09/10 04:31:01;;;;;;;10.90;9.90;;;19.10;99.90;;;;;;5031367;28;20616;-51
2021/09/10 04:33:26;;;;;;;9.50;8.70;;;19.10;99.90;;;;;;5030743;28;20186;-52
2021/09/10 04:35:52;;;;;;;11.17;10.17;;;19.10;99.90;;;;;;5036805;28;20205;-52
2021/09/10 04:38:17;;;;;;;11.47;9.43;;;19.00;99.90;;;;;;5027174;28;20272;-51
2021/09/10 04:40:43;;;;;;;12.30;10.50;;;19.00;99.90;;;;;;5032081;28;20193;-51
2021/09/10 04:43:10;;;;;;;10.67;9.77;;;18.90;99.90;;;;;;5029197;28;20269;-51
2021/09/10 04:45:35;;;;;;;10.25;9.38;;;18.80;99.90;;;;;;5034965;28;20189;-52
2021/09/10 04:48:01;;;;;;;10.90;9.83;;;18.80;99.90;;;;;;5029203;28;20699;-51
2021/09/10 04:50:27;;;;;;;13.60;12.50;;;18.70;99.90;;;;;;5032726;28;20196;-51
2021/09/10 04:52:52;;;;;;;11.43;10.33;;;18.70;99.90;;;;;;5034468;28;20185;-51
2021/09/10 04:55:18;;;;;;;11.03;9.97;;;18.70;99.90;;;;;;5033656;28;20486;-51
2021/09/10 04:57:43;;;;;;;10.93;10.00;;;18.60;99.90;;;;;;5025607;28;20561;-52
2021/09/10 05:00:10;;;;;;;10.83;9.73;;;18.60;99.90;;;;;;5029978;28;20594;-52
2021/09/10 05:02:37;;;;;;;11.57;10.40;;;18.70;99.90;;;;;;5035543;28;20193;-51
2021/09/10 05:05:03;;;;;;;10.85;9.95;;;18.80;99.90;;;;;;5021494;28;20185;-51
2021/09/10 05:07:29;;;;;;;10.63;9.60;;;18.80;99.90;;;;;;5025626;28;20627;-52
2021/09/10 05:09:54;;;;;;;11.20;10.10;;;18.80;99.90;;;;;;5027399;28;20194;-51
2021/09/10 05:12:20;;;;;;;11.33;10.20;;;18.90;99.90;;;;;;5027340;28;20241;-51
2021/09/10 05:14:46;;;;;;;11.27;10.17;;;18.90;99.90;;;;;;5021469;28;20647;-52
2021/09/10 05:17:11;;;;;;;11.27;10.27;;;18.90;99.90;;;;;;5025900;28;20229;-51
2021/09/10 05:19:37;;;;;;;11.20;10.20;;;19.00;99.90;;;;;;5019229;28;20212;-52
2021/09/10 05:22:03;;;;;;;11.13;10.20;;;19.00;99.90;;;;;;5025658;28;20189;-52
2021/09/10 05:24:29;;;;;;;11.25;10.10;;;19.00;99.90;;;;;;5022467;28;20187;-52
2021/09/10 05:26:54;;;;;;;11.43;10.47;;;19.00;99.90;;;;;;5036693;28;20695;-51
2021/09/10 05:29:20;;;;;;;11.33;10.23;;;19.00;99.90;;;;;;5032511;28;20181;-51
2021/09/10 05:31:45;;;;;;;11.00;10.00;;;19.00;99.90;;;;;;5023344;28;20190;-52
2021/09/10 05:34:11;;;;;;;11.87;10.73;;;19.00;99.90;;;;;;5024280;28;20190;-52
2021/09/10 05:36:38;;;;;;;10.80;9.80;;;18.90;99.90;;;;;;5022279;28;20253;-52
2021/09/10 05:39:05;;;;;;;10.30;9.40;;;18.90;99.90;;;;;;5019494;28;20210;-52
2021/09/10 05:41:30;;;;;;;11.30;10.37;;;19.10;99.90;;;;;;5019015;28;20673;-52
2021/09/10 05:43:56;;;;;;;11.13;10.20;;;19.10;99.90;;;;;;5023258;28;20440;-52
2021/09/10 05:46:21;;;;;;;10.37;9.27;;;19.10;99.90;;;;;;5022197;28;20270;-53
2021/09/10 05:48:47;;;;;;;13.30;10.50;;;19.20;99.90;;;;;;5029527;28;20257;-52
2021/09/10 05:51:13;;;;;;;11.43;10.43;;;19.20;99.90;;;;;;5030218;28;20573;-52
2021/09/10 05:53:39;;;;;;;11.20;10.20;;;19.10;99.90;;;;;;5029978;28;20551;-51
2021/09/10 05:56:05;;;;;;;10.70;9.65;;;19.10;99.90;;;;;;5025461;28;20200;-52
2021/09/10 05:58:31;;;;;;;10.97;9.70;;;19.20;99.90;;;;;;5024700;28;20679;-51
2021/09/10 06:00:56;;;;;;;12.97;11.87;;;19.20;99.90;;;;;;5026734;28;20648;-51
2021/09/10 06:03:22;;;;;;;11.57;10.47;;;19.20;99.90;;;;;;5028562;28;20241;-52
2021/09/10 06:05:47;;;;;;;11.20;10.20;;;19.10;99.90;;;;;;5032952;28;20198;-52
2021/09/10 06:08:13;;;;;;;12.57;10.37;;;19.10;99.90;;;;;;5025813;28;20239;-52
2021/09/10 06:10:40;;;;;;;13.33;11.03;;;19.20;99.90;;;;;;5009212;28;20267;-52
2021/09/10 06:13:06;;;;;;;10.93;10.02;;;19.30;99.90;;;;;;5019612;28;20182;-52
2021/09/10 06:15:31;;;;;;;11.03;10.13;;;19.40;99.90;;;;;;5027467;28;20198;-52
2021/09/10 06:17:57;;;;;;;11.63;10.63;;;19.50;99.90;;;;;;5026426;28;20221;-52
2021/09/10 06:20:23;;;;;;;11.47;10.40;;;19.60;99.90;;;;;;5029094;28;20191;-52
2021/09/10 06:22:48;;;;;;;12.17;9.30;;;19.70;99.90;;;;;;5025541;28;20677;-51
2021/09/10 06:25:14;;;;;;;11.33;9.60;;;19.80;99.90;;;;;;5020974;28;20683;-52
2021/09/10 06:27:41;;;;;;;10.70;9.80;;;19.90;99.90;;;;;;5021410;28;20210;-51
2021/09/10 06:30:07;;;;;;;11.90;10.80;;;19.90;99.90;;;;;;5021789;28;20187;-51
2021/09/10 06:32:34;;;;;;;10.32;9.35;;;20.00;99.90;;;;;;5025346;28;20273;-51
2021/09/10 06:34:59;;;;;;;11.93;9.77;;;20.10;99.90;;;;;;5026681;28;20203;-51
2021/09/10 06:37:25;;;;;;;10.10;9.13;;;20.20;99.90;;;;;;5035203;28;20217;-51
2021/09/10 06:39:51;;;;;;;10.60;9.60;;;20.30;99.90;;;;;;5030551;28;20197;-52
2021/09/10 06:42:17;;;;;;;11.10;10.10;;;20.40;99.90;;;;;;5021344;28;20447;-52
2021/09/10 06:44:42;;;;;;;10.70;9.60;;;20.50;99.90;;;;;;5031311;28;20559;-49
2021/09/10 06:47:08;;;;;;;11.23;9.20;;;20.70;99.90;;;;;;5032138;28;20229;-49
2021/09/10 06:49:34;;;;;;;10.40;9.50;;;20.90;99.90;;;;;;5028923;28;20659;-49
2021/09/10 06:51:59;;;;;;;10.60;9.80;;;21.00;99.90;;;;;;5036312;28;20617;-50
2021/09/10 06:54:25;;;;;;;11.23;9.87;;;21.10;99.90;;;;;;5033524;28;20265;-50
2021/09/10 06:56:50;;;;;;;11.53;10.53;;;21.20;99.90;;;;;;5023823;28;20226;-50
2021/09/10 06:59:19;;;;;;;10.83;9.83;;;21.40;99.80;;;;;;5031910;28;20183;-50
2021/09/10 07:01:45;;;;;;;10.80;9.70;;;21.80;99.10;;;;;;5025884;28;20190;-50
2021/09/10 07:04:10;;;;;;;9.20;8.40;;;23.10;97.40;;;;;;5024326;28;20675;-50
2021/09/10 07:06:36;;;;;;;9.70;8.80;;;25.10;94.50;;;;;;5029127;28;20439;-50
2021/09/10 07:09:02;;;;;;;9.20;8.50;;;27.30;90.60;;;;;;5027162;28;20200;-50
2021/09/10 07:11:28;;;;;;;8.83;7.90;;;28.90;83.30;;;;;;5027349;28;20188;-51
2021/09/10 07:13:58;;;;;;;8.50;7.80;;;30.40;75.00;;;;;;5028344;28;20193;-50
2021/09/10 07:16:24;;;;;;;8.40;7.70;;;31.90;70.60;;;;;;5030187;28;20500;-51
2021/09/10 07:18:49;;;;;;;8.70;7.97;;;33.20;64.90;;;;;;5029489;28;20485;-51
2021/09/10 07:21:15;;;;;;;8.27;7.67;;;33.00;63.10;;;;;;5029880;28;20197;-51
2021/09/10 07:23:40;;;;;;;8.07;7.47;;;33.40;60.70;;;;;;5037256;28;20239;-51
2021/09/10 07:26:06;;;;;;;8.70;8.00;;;33.70;59.30;;;;;;5032470;28;20182;-52
2021/09/10 07:28:35;;;;;;;8.40;7.73;;;34.60;57.50;;;;;;5027747;28;20237;-51
2021/09/10 07:31:02;;;;;;;8.50;7.60;;;34.80;54.60;;;;;;5034790;28;20197;-53
2021/09/10 07:33:27;;;;;;;8.90;8.10;;;35.10;54.70;;;;;;5036324;28;20440;-52
2021/09/10 07:35:53;;;;;;;8.77;7.87;;;35.70;53.20;;;;;;5028119;28;20532;-51
2021/09/10 07:38:19;;;;;;;8.03;7.33;;;35.10;52.20;;;;;;5022612;28;20219;-52
2021/09/10 07:40:45;;;;;;;8.20;7.50;;;34.20;54.10;;;;;;5037813;28;20459;-51
2021/09/10 07:43:10;;;;;;;8.73;8.07;;;33.30;55.30;;;;;;5030172;28;20209;-51
2021/09/10 07:45:36;;;;;;;7.83;7.23;;;32.90;56.30;;;;;;5030180;28;20546;-50
2021/09/10 07:48:02;;;;;;;7.53;6.93;;;32.90;55.80;;;;;;5028258;28;20206;-51
2021/09/10 07:50:28;;;;;;;12.20;7.80;;;32.90;56.10;;;;;;5030615;28;20197;-52
2021/09/10 07:52:54;;;;;;;8.10;7.50;;;33.80;55.50;;;;;;5020551;28;20186;-52
2021/09/10 07:55:19;;;;;;;7.30;6.67;;;34.90;54.30;;;;;;5028136;28;20579;-51
2021/09/10 07:57:45;;;;;;;7.90;7.20;;;36.40;51.40;;;;;;5029480;28;20747;-51
2021/09/10 08:00:11;;;;;;;8.03;7.43;;;36.50;50.00;;;;;;5034268;28;20198;-51
2021/09/10 08:02:39;;;;;;;8.20;7.37;;;36.00;50.20;;;;;;5030543;28;20178;-51
2021/09/10 08:05:06;;;;;;;7.53;7.03;;;35.20;51.10;;;;;;5034315;28;20436;-51
2021/09/10 08:07:31;;;;;;;7.50;6.90;;;34.90;52.50;;;;;;5028137;28;20659;-52
2021/09/10 08:09:57;;;;;;;7.33;6.63;;;34.40;52.30;;;;;;5036086;28;20821;-51
2021/09/10 08:12:22;;;;;;;7.80;7.20;;;34.50;51.60;;;;;;5023237;28;20175;-51
2021/09/10 08:14:48;;;;;;;8.00;7.20;;;34.10;52.60;;;;;;5029525;28;20579;-51
2021/09/10 08:17:13;;;;;;;8.60;7.80;;;34.10;52.60;;;;;;5035228;28;20217;-52
2021/09/10 08:19:39;;;;;;;7.57;6.97;;;34.60;51.90;;;;;;5029639;28;20698;-52
2021/09/10 08:22:05;;;;;;;7.50;6.90;;;34.40;51.50;;;;;;5025738;28;20186;-52
2021/09/10 08:24:30;;;;;;;7.87;6.77;;;33.70;52.00;;;;;;5029030;28;20618;-51
2021/09/10 08:26:56;;;;;;;7.13;6.53;;;33.70;52.50;;;;;;5028075;28;20285;-51
2021/09/10 08:29:21;;;;;;;6.50;6.00;;;33.90;52.50;;;;;;5030064;28;20553;-51
2021/09/10 08:31:47;;;;;;;7.10;6.60;;;34.10;51.80;;;;;;5029866;28;20197;-51
2021/09/10 08:34:13;;;;;;;6.03;5.63;;;33.90;52.10;;;;;;5028878;28;20197;-51
2021/09/10 08:36:38;;;;;;;7.40;6.90;;;33.40;52.10;;;;;;5026832;28;20202;-51
2021/09/10 08:39:04;;;;;;;8.63;7.20;;;32.40;53.80;;;;;;5039866;28;20255;-51
2021/09/10 08:41:34;;;;;;;7.07;6.47;;;31.30;55.60;;;;;;5029320;28;20278;-51
2021/09/10 08:44:05;;;;;;;7.90;7.30;;;30.60;57.30;;;;;;5028482;28;20938;-57
2021/09/10 08:46:35;;;;;;;7.97;7.33;;;30.40;57.90;;;;;;5028098;28;20456;-51
2021/09/10 08:49:01;;;;;;;8.03;7.43;;;29.50;59.70;;;;;;5028965;28;20449;-51
2021/09/10 08:51:26;;;;;;;10.97;9.87;;;28.60;62.60;;;;;;5028002;28;20459;-50
2021/09/10 08:53:52;;;;;;;8.60;7.90;;;28.50;63.90;;;;;;5028731;28;20438;-51
2021/09/10 08:56:18;;;;;;;8.70;7.03;;;28.20;65.90;;;;;;5029781;28;20207;-51
2021/09/10 08:58:43;;;;;;;7.97;7.23;;;28.10;65.60;;;;;;5020583;28;20635;-50
2021/09/10 09:01:10;;;;;;;8.07;7.37;;;28.10;66.00;;;;;;5025725;28;20224;-51
2021/09/10 09:03:35;;;;;;;7.53;6.90;;;27.80;67.10;;;;;;5014849;28;20207;-50
2021/09/10 09:06:01;;;;;;;7.67;6.97;;;27.70;66.90;;;;;;5022309;28;20953;-50
2021/09/10 09:08:27;;;;;;;7.73;7.03;;;27.80;67.30;;;;;;5024640;28;20306;-51
2021/09/10 09:11:00;;;;;;;7.90;7.30;;;27.70;66.90;;;;;;5030989;28;20813;-51
2021/09/10 09:13:30;;;;;;;8.60;7.80;;;27.40;69.10;;;;;;5016355;28;20193;-51
2021/09/10 09:16:16;;;;;;;7.10;6.50;;;27.40;70.20;;;;;;5028893;28;20470;-51
2021/09/10 09:18:48;;;;;;;7.70;7.03;;;27.30;70.40;;;;;;5017256;28;21317;-51
2021/09/10 09:21:19;;;;;;;8.63;7.70;;;27.50;70.40;;;;;;5025529;28;20437;-51
2021/09/10 09:23:44;;;;;;;9.57;8.77;;;27.80;69.80;;;;;;5037567;28;20432;-52
2021/09/10 09:26:22;;;;;;;10.30;8.00;;;28.20;67.50;;;;;;5023010;28;20501;-51
2021/09/10 09:29:10;;;;;;;7.33;6.73;;;28.30;66.10;;;;;;5023694;28;20358;-51
2021/09/10 09:31:37;;;;;;;6.73;6.20;;;28.50;65.90;;;;;;5034525;28;20440;-51
2021/09/10 09:34:04;;;;;;;6.97;6.47;;;28.40;66.30;;;;;;5026754;28;20465;-50
2021/09/10 09:36:30;;;;;;;7.20;6.70;;;28.30;66.60;;;;;;5022314;28;20485;-51
2021/09/10 09:38:58;;;;;;;7.63;7.03;;;28.50;66.30;;;;;;5023701;28;20435;-51
2021/09/10 09:41:24;;;;;;;7.90;7.03;;;28.40;66.20;;;;;;5024114;28;20885;-51
2021/09/10 09:44:08;;;;;;;8.03;7.43;;;28.70;66.10;;;;;;5026306;28;20802;-51
2021/09/10 09:46:34;;;;;;;10.13;7.33;;;28.90;65.90;;;;;;5027609;28;20721;-51
2021/09/10 09:49:09;;;;;;;8.20;7.50;;;29.20;65.00;;;;;;5025282;28;20444;-52
2021/09/10 09:51:34;;;;;;;8.20;7.53;;;29.30;63.80;;;;;;5018442;28;20201;-52
2021/09/10 09:54:15;;;;;;;8.40;7.70;;;29.10;65.20;;;;;;5030993;28;20447;-52
2021/09/10 09:56:40;;;;;;;8.93;8.13;;;28.80;65.70;;;;;;5027645;28;20217;-52
2021/09/10 09:59:06;;;;;;;8.27;7.67;;;28.00;67.80;;;;;;5024966;28;20445;-52
2021/09/10 10:01:32;;;;;;;9.57;7.03;;;28.10;68.80;;;;;;5033932;28;20214;-52
2021/09/10 10:03:57;;;;;;;7.23;6.60;;;28.40;68.20;;;;;;5028350;28;20181;-53
2021/09/10 10:06:26;;;;;;;8.93;8.13;;;28.30;67.70;;;;;;5035126;28;20198;-52
2021/09/10 10:09:02;;;;;;;8.77;7.37;;;28.10;68.20;;;;;;5032650;28;20274;-52
2021/09/10 10:11:44;;;;;;;8.40;7.70;;;28.10;69.30;;;;;;5030617;28;20451;-52
2021/09/10 10:14:14;;;;;;;7.60;7.00;;;28.00;69.50;;;;;;5027222;28;20882;-52
2021/09/10 10:16:45;;;;;;;7.50;6.90;;;28.10;69.30;;;;;;5027824;28;20468;-51
2021/09/10 10:19:19;;;;;;;8.17;7.47;;;27.90;70.30;;;;;;5032310;28;20799;-52
2021/09/10 10:21:48;;;;;;;8.20;7.53;;;28.00;69.80;;;;;;5030053;28;20447;-52
2021/09/10 10:24:51;;;;;;;9.27;7.03;;;27.90;69.70;;;;;;5033017;28;20435;-52
2021/09/10 10:27:45;;;;;;;8.50;7.80;;;27.90;68.70;;;;;;5028006;28;20474;-52
2021/09/10 10:30:19;;;;;;;8.10;7.50;;;27.70;70.30;;;;;;5034216;28;20503;-52
2021/09/10 10:32:51;;;;;;;7.67;7.07;;;28.00;68.40;;;;;;5039843;28;20449;-53
2021/09/10 10:35:28;;;;;;;8.03;7.33;;;28.30;66.40;;;;;;5027774;28;20494;-54
2021/09/10 10:38:12;;;;;;;8.23;7.63;;;28.10;67.50;;;;;;5031872;28;20473;-52
2021/09/10 10:40:52;;;;;;;8.30;7.70;;;28.20;67.70;;;;;;5036680;28;20441;-52
2021/09/10 10:43:20;;;;;;;9.03;7.77;;;28.40;66.50;;;;;;5024401;28;20442;-53
2021/09/10 10:45:46;;;;;;;7.57;6.97;;;28.40;66.70;;;;;;5027822;28;20824;-52
2021/09/10 10:48:29;;;;;;;7.20;6.70;;;28.40;67.10;;;;;;5031993;28;20460;-52
2021/09/10 10:51:01;;;;;;;8.03;7.33;;;28.30;67.30;;;;;;5035128;28;20626;-52
2021/09/10 10:53:26;;;;;;;7.17;6.47;;;28.10;68.20;;;;;;5029614;28;20544;-52
2021/09/10 10:55:52;;;;;;;7.63;7.03;;;27.80;68.40;;;;;;5039399;28;20902;-52
2021/09/10 10:58:25;;;;;;;7.93;7.33;;;28.10;68.80;;;;;;5030190;28;20616;-51
2021/09/10 11:00:58;;;;;;;7.80;7.00;;;27.90;68.10;;;;;;5033711;28;20237;-52
2021/09/10 11:03:24;;;;;;;8.50;7.80;;;27.80;67.70;;;;;;5034750;28;20447;-51
2021/09/10 11:05:52;;;;;;;7.00;6.40;;;27.70;67.90;;;;;;5028452;28;20449;-51
2021/09/10 11:08:19;;;;;;;7.93;7.13;;;27.50;69.10;;;;;;5031177;28;20577;-51
2021/09/10 11:10:51;;;;;;;6.87;6.37;;;27.50;69.60;;;;;;5024857;28;20440;-51
2021/09/10 11:13:16;;;;;;;7.20;6.60;;;27.80;69.40;;;;;;5027705;28;20436;-51
2021/09/10 11:15:42;;;;;;;9.43;7.00;;;27.80;67.20;;;;;;5029805;28;20439;-52
2021/09/10 11:18:12;;;;;;;7.00;6.50;;;28.00;67.20;;;;;;5037484;28;20276;-52
2021/09/10 11:20:48;;;;;;;7.20;6.50;;;28.00;68.20;;;;;;5028811;28;20210;-52
2021/09/10 11:23:24;;;;;;;7.57;6.97;;;27.90;66.70;;;;;;5041628;28;20445;-52
2021/09/10 11:25:52;;;;;;;7.10;6.57;;;28.00;67.20;;;;;;5037992;28;20447;-52
2021/09/10 11:28:19;;;;;;;8.43;7.60;;;28.10;67.10;;;;;;5032080;28;20452;-52
2021/09/10 11:30:47;;;;;;;7.40;6.70;;;28.10;66.50;;;;;;5037867;28;20457;-51
2021/09/10 11:33:13;;;;;;;7.63;7.13;;;28.00;67.30;;;;;;5037054;28;20435;-51
2021/09/10 11:35:40;;;;;;;7.90;7.20;;;28.20;67.60;;;;;;5030773;28;20846;-52
2021/09/10 11:38:21;;;;;;;7.43;6.93;;;28.00;67.00;;;;;;5031360;28;20238;-51
2021/09/10 11:40:55;;;;;;;7.70;7.10;;;28.20;68.20;;;;;;5030815;28;20450;-52
2021/09/10 11:43:31;;;;;;;7.90;7.27;;;28.00;68.10;;;;;;5025446;28;21938;-52
2021/09/10 11:46:04;;;;;;;7.73;7.13;;;27.70;68.90;;;;;;5031085;28;20460;-51
2021/09/10 11:48:33;;;;;;;8.10;7.50;;;27.60;70.00;;;;;;5031518;28;20852;-52
2021/09/10 11:51:07;;;;;;;8.27;7.63;;;27.30;70.60;;;;;;5028868;28;20536;-52
2021/09/10 11:53:47;;;;;;;8.20;7.60;;;27.20;71.60;;;;;;5032383;28;20463;-52
2021/09/10 11:56:18;;;;;;;7.60;6.90;;;27.20;71.80;;;;;;5031625;28;20469;-52
2021/09/10 11:58:47;;;;;;;7.60;7.00;;;27.40;71.50;;;;;;5024458;28;20462;-53
2021/09/10 12:01:19;;;;;;;8.50;7.80;;;27.40;71.50;;;;;;5033053;28;20436;-51
2021/09/10 12:03:52;;;;;;;8.90;8.20;;;27.40;71.60;;;;;;5029241;28;20452;-51
2021/09/10 12:06:48;;;;;;;8.03;7.23;;;27.40;72.60;;;;;;5028162;28;20459;-52
2021/09/10 12:09:22;;;;;;;8.37;7.67;;;27.20;71.90;;;;;;5028233;28;20441;-52
2021/09/10 12:12:03;;;;;;;9.27;8.57;;;27.10;72.40;;;;;;5030499;28;20533;-51
2021/09/10 12:14:28;;;;;;;8.63;7.83;;;27.00;73.20;;;;;;5029158;28;20460;-50
2021/09/10 12:17:23;;;;;;;8.50;7.80;;;27.00;73.10;;;;;;5025482;28;20624;-52
2021/09/10 12:19:57;;;;;;;8.43;7.83;;;27.00;72.70;;;;;;5022473;28;20566;-51
2021/09/10 12:22:31;;;;;;;12.47;9.73;;;26.90;73.60;;;;;;5026129;28;20478;-52
2021/09/10 12:25:22;;;;;;;10.03;9.13;;;26.70;74.30;;;;;;5030656;28;20437;-52
2021/09/10 12:28:10;;;;;;;9.87;9.07;;;27.00;74.50;;;;;;5024767;28;20472;-51
2021/09/10 12:30:46;;;;;;;8.30;7.70;;;27.10;72.70;;;;;;5030821;28;20444;-51
2021/09/10 12:33:17;;;;;;;8.67;7.97;;;27.10;72.50;;;;;;5041649;28;20432;-51
2021/09/10 12:35:44;;;;;;;8.50;7.90;;;27.20;73.30;;;;;;5028376;28;20448;-52
2021/09/10 12:38:13;;;;;;;8.97;8.33;;;27.20;73.10;;;;;;5030592;28;20492;-52
2021/09/10 12:40:41;;;;;;;9.00;8.20;;;27.00;74.40;;;;;;5024841;28;21265;-53
2021/09/10 12:43:09;;;;;;;10.23;9.23;;;27.20;74.20;;;;;;5030117;28;20501;-55
2021/09/10 12:45:35;;;;;;;8.50;7.80;;;26.80;75.10;;;;;;5031780;28;20582;-52